sensor_id;sensor_type;location;lat;lon;timestamp;P1;durP1;ratioP1;P2;durP2;ratioP2
41739;SDS011;27422;52.444;13.300;2023-07-31T00:00:26;3.83;;;1.67;;
41739;SDS011;27422;52.444;13.300;2023-07-31T00:02:52;5.63;;;2.15;;
41739;SDS011;27422;52.444;13.300;2023-07-31T00:05:18;6.22;;;1.80;;
41739;SDS011;27422;52.444;13.300;2023-07-31T00:07:43;4.68;;;1.70;;
41739;SDS011;27422;52.444;13.300;2023-07-31T00:10:09;6.60;;;1.88;;
41739;SDS011;27422;52.444;13.300;2023-07-31T00:12:34;3.70;;;1.67;;
41739;SDS011;27422;52.444;13.300;2023-07-31T00:15:00;4.43;;;1.88;;
41739;SDS011;27422;52.444;13.300;2023-07-31T00:17:29;4.90;;;2.08;;
41739;SDS011;27422;52.444;13.300;2023-07-31T00:19:55;5.75;;;1.90;;
41739;SDS011;27422;52.444;13.300;2023-07-31T00:22:20;5.50;;;1.83;;
41739;SDS011;27422;52.444;13.300;2023-07-31T00:24:45;4.57;;;2.05;;
41739;SDS011;27422;52.444;13.300;2023-07-31T00:27:12;6.00;;;2.15;;
41739;SDS011;27422;52.444;13.300;2023-07-31T00:29:37;4.25;;;1.85;;
41739;SDS011;27422;52.444;13.300;2023-07-31T00:32:02;6.50;;;2.30;;
41739;SDS011;27422;52.444;13.300;2023-07-31T00:34:28;4.47;;;1.90;;
41739;SDS011;27422;52.444;13.300;2023-07-31T00:39:21;5.32;;;1.90;;
41739;SDS011;27422;52.444;13.300;2023-07-31T00:41:46;4.32;;;1.80;;
41739;SDS011;27422;52.444;13.300;2023-07-31T00:44:14;4.10;;;2.10;;
41739;SDS011;27422;52.444;13.300;2023-07-31T00:46:39;6.57;;;2.30;;
41739;SDS011;27422;52.444;13.300;2023-07-31T00:49:05;5.93;;;2.10;;
41739;SDS011;27422;52.444;13.300;2023-07-31T00:51:33;5.10;;;1.95;;
41739;SDS011;27422;52.444;13.300;2023-07-31T00:53:58;5.18;;;1.92;;
41739;SDS011;27422;52.444;13.300;2023-07-31T00:56:24;6.38;;;2.15;;
41739;SDS011;27422;52.444;13.300;2023-07-31T00:58:50;4.68;;;2.20;;
41739;SDS011;27422;52.444;13.300;2023-07-31T01:01:16;5.53;;;2.10;;
41739;SDS011;27422;52.444;13.300;2023-07-31T01:03:41;5.30;;;2.10;;
41739;SDS011;27422;52.444;13.300;2023-07-31T01:09:07;4.15;;;1.98;;
41739;SDS011;27422;52.444;13.300;2023-07-31T01:11:34;5.38;;;2.28;;
41739;SDS011;27422;52.444;13.300;2023-07-31T01:14:04;6.70;;;2.10;;
41739;SDS011;27422;52.444;13.300;2023-07-31T01:16:29;4.70;;;2.47;;
41739;SDS011;27422;52.444;13.300;2023-07-31T01:18:55;7.38;;;2.55;;
41739;SDS011;27422;52.444;13.300;2023-07-31T01:24:20;5.25;;;2.30;;
41739;SDS011;27422;52.444;13.300;2023-07-31T01:27:17;6.18;;;2.63;;
41739;SDS011;27422;52.444;13.300;2023-07-31T01:29:48;4.55;;;2.50;;
41739;SDS011;27422;52.444;13.300;2023-07-31T01:32:18;6.82;;;2.63;;
41739;SDS011;27422;52.444;13.300;2023-07-31T01:34:44;5.18;;;2.25;;
41739;SDS011;27422;52.444;13.300;2023-07-31T01:37:10;6.78;;;2.72;;
41739;SDS011;27422;52.444;13.300;2023-07-31T01:39:36;6.50;;;2.47;;
41739;SDS011;27422;52.444;13.300;2023-07-31T01:42:01;5.18;;;2.50;;
41739;SDS011;27422;52.444;13.300;2023-07-31T01:44:26;7.25;;;2.80;;
41739;SDS011;27422;52.444;13.300;2023-07-31T01:46:52;5.40;;;2.80;;
41739;SDS011;27422;52.444;13.300;2023-07-31T01:49:17;6.55;;;2.67;;
41739;SDS011;27422;52.444;13.300;2023-07-31T01:51:43;6.75;;;2.92;;
41739;SDS011;27422;52.444;13.300;2023-07-31T01:54:08;5.10;;;2.67;;
41739;SDS011;27422;52.444;13.300;2023-07-31T01:56:33;6.60;;;2.50;;
41739;SDS011;27422;52.444;13.300;2023-07-31T01:58:59;6.32;;;2.38;;
41739;SDS011;27422;52.444;13.300;2023-07-31T02:01:24;4.85;;;2.67;;
41739;SDS011;27422;52.444;13.300;2023-07-31T02:03:50;7.28;;;2.40;;
41739;SDS011;27422;52.444;13.300;2023-07-31T02:06:15;8.15;;;2.67;;
41739;SDS011;27422;52.444;13.300;2023-07-31T02:08:40;6.10;;;2.20;;
41739;SDS011;27422;52.444;13.300;2023-07-31T02:11:06;5.85;;;2.95;;
41739;SDS011;27422;52.444;13.300;2023-07-31T02:13:31;7.40;;;2.80;;
41739;SDS011;27422;52.444;13.300;2023-07-31T02:15:57;7.60;;;2.97;;
41739;SDS011;27422;52.444;13.300;2023-07-31T02:18:22;6.50;;;2.85;;
41739;SDS011;27422;52.444;13.300;2023-07-31T02:20:49;4.78;;;2.35;;
41739;SDS011;27422;52.444;13.300;2023-07-31T02:23:17;5.78;;;2.92;;
41739;SDS011;27422;52.444;13.300;2023-07-31T02:25:44;5.28;;;2.60;;
41739;SDS011;27422;52.444;13.300;2023-07-31T02:28:09;4.80;;;2.70;;
41739;SDS011;27422;52.444;13.300;2023-07-31T02:30:35;5.65;;;2.80;;
41739;SDS011;27422;52.444;13.300;2023-07-31T02:33:00;5.05;;;2.50;;
41739;SDS011;27422;52.444;13.300;2023-07-31T02:35:31;6.18;;;2.53;;
41739;SDS011;27422;52.444;13.300;2023-07-31T02:37:57;6.45;;;2.80;;
41739;SDS011;27422;52.444;13.300;2023-07-31T02:40:22;6.82;;;2.85;;
41739;SDS011;27422;52.444;13.300;2023-07-31T02:42:48;8.10;;;2.90;;
41739;SDS011;27422;52.444;13.300;2023-07-31T02:45:14;5.57;;;3.10;;
41739;SDS011;27422;52.444;13.300;2023-07-31T02:47:39;6.55;;;2.80;;
41739;SDS011;27422;52.444;13.300;2023-07-31T02:50:07;6.82;;;3.08;;
41739;SDS011;27422;52.444;13.300;2023-07-31T02:52:33;4.90;;;2.97;;
41739;SDS011;27422;52.444;13.300;2023-07-31T02:54:58;7.38;;;3.10;;
41739;SDS011;27422;52.444;13.300;2023-07-31T02:57:24;7.53;;;3.45;;
41739;SDS011;27422;52.444;13.300;2023-07-31T02:59:50;7.78;;;3.28;;
41739;SDS011;27422;52.444;13.300;2023-07-31T03:02:18;6.13;;;3.55;;
41739;SDS011;27422;52.444;13.300;2023-07-31T03:04:46;7.78;;;3.72;;
41739;SDS011;27422;52.444;13.300;2023-07-31T03:07:12;6.97;;;3.95;;
41739;SDS011;27422;52.444;13.300;2023-07-31T03:09:37;6.85;;;3.55;;
41739;SDS011;27422;52.444;13.300;2023-07-31T03:12:02;7.45;;;3.95;;
41739;SDS011;27422;52.444;13.300;2023-07-31T03:14:28;5.25;;;3.80;;
41739;SDS011;27422;52.444;13.300;2023-07-31T03:16:54;6.45;;;3.75;;
41739;SDS011;27422;52.444;13.300;2023-07-31T03:19:19;8.93;;;4.10;;
41739;SDS011;27422;52.444;13.300;2023-07-31T03:21:45;8.75;;;3.92;;
41739;SDS011;27422;52.444;13.300;2023-07-31T03:24:10;8.90;;;3.72;;
41739;SDS011;27422;52.444;13.300;2023-07-31T03:26:37;8.23;;;3.75;;
41739;SDS011;27422;52.444;13.300;2023-07-31T03:29:03;7.50;;;4.10;;
41739;SDS011;27422;52.444;13.300;2023-07-31T03:31:31;9.07;;;4.20;;
41739;SDS011;27422;52.444;13.300;2023-07-31T03:33:57;8.35;;;4.50;;
41739;SDS011;27422;52.444;13.300;2023-07-31T03:36:22;7.07;;;3.95;;
41739;SDS011;27422;52.444;13.300;2023-07-31T03:38:48;7.50;;;4.53;;
41739;SDS011;27422;52.444;13.300;2023-07-31T03:41:13;8.02;;;4.13;;
41739;SDS011;27422;52.444;13.300;2023-07-31T03:43:39;8.27;;;4.15;;
41739;SDS011;27422;52.444;13.300;2023-07-31T03:46:04;7.57;;;4.45;;
41739;SDS011;27422;52.444;13.300;2023-07-31T03:48:30;7.05;;;3.92;;
41739;SDS011;27422;52.444;13.300;2023-07-31T03:50:55;6.25;;;4.18;;
41739;SDS011;27422;52.444;13.300;2023-07-31T03:53:21;8.05;;;4.10;;
41739;SDS011;27422;52.444;13.300;2023-07-31T03:55:46;9.25;;;4.43;;
41739;SDS011;27422;52.444;13.300;2023-07-31T03:58:12;9.23;;;4.18;;
41739;SDS011;27422;52.444;13.300;2023-07-31T04:00:40;9.73;;;4.15;;
41739;SDS011;27422;52.444;13.300;2023-07-31T04:03:06;7.25;;;4.40;;
41739;SDS011;27422;52.444;13.300;2023-07-31T04:05:31;6.85;;;3.88;;
41739;SDS011;27422;52.444;13.300;2023-07-31T04:07:57;7.57;;;4.00;;
41739;SDS011;27422;52.444;13.300;2023-07-31T04:10:25;8.75;;;3.70;;
41739;SDS011;27422;52.444;13.300;2023-07-31T04:12:50;11.07;;;4.25;;
41739;SDS011;27422;52.444;13.300;2023-07-31T04:15:15;7.40;;;3.70;;
41739;SDS011;27422;52.444;13.300;2023-07-31T04:17:41;7.78;;;4.00;;
41739;SDS011;27422;52.444;13.300;2023-07-31T04:20:07;9.20;;;3.92;;
41739;SDS011;27422;52.444;13.300;2023-07-31T04:22:36;5.90;;;3.67;;
41739;SDS011;27422;52.444;13.300;2023-07-31T04:25:01;9.15;;;4.10;;
41739;SDS011;27422;52.444;13.300;2023-07-31T04:27:26;8.80;;;4.15;;
41739;SDS011;27422;52.444;13.300;2023-07-31T04:29:52;8.77;;;4.15;;
41739;SDS011;27422;52.444;13.300;2023-07-31T04:32:18;8.60;;;4.00;;
41739;SDS011;27422;52.444;13.300;2023-07-31T04:34:44;9.23;;;4.28;;
41739;SDS011;27422;52.444;13.300;2023-07-31T04:37:09;9.27;;;4.32;;
41739;SDS011;27422;52.444;13.300;2023-07-31T04:39:35;5.30;;;3.67;;
41739;SDS011;27422;52.444;13.300;2023-07-31T04:42:00;8.50;;;4.10;;
41739;SDS011;27422;52.444;13.300;2023-07-31T04:44:25;9.98;;;4.20;;
41739;SDS011;27422;52.444;13.300;2023-07-31T04:46:51;9.35;;;4.18;;
41739;SDS011;27422;52.444;13.300;2023-07-31T04:49:19;8.07;;;4.47;;
41739;SDS011;27422;52.444;13.300;2023-07-31T04:51:44;10.45;;;4.40;;
41739;SDS011;27422;52.444;13.300;2023-07-31T04:54:10;9.10;;;4.18;;
41739;SDS011;27422;52.444;13.300;2023-07-31T04:56:37;8.40;;;4.30;;
41739;SDS011;27422;52.444;13.300;2023-07-31T04:59:03;8.63;;;4.22;;
41739;SDS011;27422;52.444;13.300;2023-07-31T05:01:28;7.63;;;4.10;;
41739;SDS011;27422;52.444;13.300;2023-07-31T05:03:54;9.07;;;4.40;;
41739;SDS011;27422;52.444;13.300;2023-07-31T05:06:19;8.50;;;4.20;;
41739;SDS011;27422;52.444;13.300;2023-07-31T05:08:45;7.63;;;4.07;;
41739;SDS011;27422;52.444;13.300;2023-07-31T05:11:11;8.32;;;4.03;;
41739;SDS011;27422;52.444;13.300;2023-07-31T05:13:37;8.32;;;4.72;;
41739;SDS011;27422;52.444;13.300;2023-07-31T05:16:03;17.33;;;5.20;;
41739;SDS011;27422;52.444;13.300;2023-07-31T05:18:28;7.55;;;4.20;;
41739;SDS011;27422;52.444;13.300;2023-07-31T05:20:54;6.05;;;3.80;;
41739;SDS011;27422;52.444;13.300;2023-07-31T05:23:19;8.02;;;3.25;;
41739;SDS011;27422;52.444;13.300;2023-07-31T05:25:44;8.05;;;3.60;;
41739;SDS011;27422;52.444;13.300;2023-07-31T05:28:10;7.47;;;3.80;;
41739;SDS011;27422;52.444;13.300;2023-07-31T05:30:36;6.45;;;3.30;;
41739;SDS011;27422;52.444;13.300;2023-07-31T05:33:01;6.85;;;3.22;;
41739;SDS011;27422;52.444;13.300;2023-07-31T05:35:27;5.93;;;3.22;;
41739;SDS011;27422;52.444;13.300;2023-07-31T05:37:52;7.72;;;3.35;;
41739;SDS011;27422;52.444;13.300;2023-07-31T05:40:18;6.32;;;3.22;;
41739;SDS011;27422;52.444;13.300;2023-07-31T05:42:43;5.93;;;2.88;;
41739;SDS011;27422;52.444;13.300;2023-07-31T05:45:09;8.88;;;3.20;;
41739;SDS011;27422;52.444;13.300;2023-07-31T05:47:34;7.05;;;3.17;;
41739;SDS011;27422;52.444;13.300;2023-07-31T05:50:00;9.05;;;3.13;;
41739;SDS011;27422;52.444;13.300;2023-07-31T05:52:26;8.73;;;3.10;;
41739;SDS011;27422;52.444;13.300;2023-07-31T05:54:51;6.32;;;3.17;;
41739;SDS011;27422;52.444;13.300;2023-07-31T05:57:17;7.45;;;3.28;;
41739;SDS011;27422;52.444;13.300;2023-07-31T05:59:42;6.95;;;3.15;;
41739;SDS011;27422;52.444;13.300;2023-07-31T06:02:07;6.75;;;3.17;;
41739;SDS011;27422;52.444;13.300;2023-07-31T06:04:33;6.47;;;3.00;;
41739;SDS011;27422;52.444;13.300;2023-07-31T06:07:01;4.80;;;2.63;;
41739;SDS011;27422;52.444;13.300;2023-07-31T06:09:27;6.97;;;3.10;;
41739;SDS011;27422;52.444;13.300;2023-07-31T06:11:53;7.85;;;2.80;;
41739;SDS011;27422;52.444;13.300;2023-07-31T06:14:18;8.07;;;3.75;;
41739;SDS011;27422;52.444;13.300;2023-07-31T06:16:44;8.13;;;3.05;;
41739;SDS011;27422;52.444;13.300;2023-07-31T06:19:09;6.72;;;3.00;;
41739;SDS011;27422;52.444;13.300;2023-07-31T06:21:35;4.90;;;2.38;;
41739;SDS011;27422;52.444;13.300;2023-07-31T06:24:02;7.25;;;3.28;;
41739;SDS011;27422;52.444;13.300;2023-07-31T06:26:28;7.25;;;2.92;;
41739;SDS011;27422;52.444;13.300;2023-07-31T06:28:54;5.75;;;2.72;;
41739;SDS011;27422;52.444;13.300;2023-07-31T06:31:19;6.80;;;2.55;;
41739;SDS011;27422;52.444;13.300;2023-07-31T06:33:50;5.72;;;2.22;;
41739;SDS011;27422;52.444;13.300;2023-07-31T06:36:19;7.00;;;2.58;;
41739;SDS011;27422;52.444;13.300;2023-07-31T06:38:45;7.15;;;2.38;;
41739;SDS011;27422;52.444;13.300;2023-07-31T06:41:10;6.78;;;2.45;;
41739;SDS011;27422;52.444;13.300;2023-07-31T06:43:36;5.18;;;2.40;;
41739;SDS011;27422;52.444;13.300;2023-07-31T06:46:04;5.95;;;2.40;;
41739;SDS011;27422;52.444;13.300;2023-07-31T06:48:33;6.80;;;2.47;;
41739;SDS011;27422;52.444;13.300;2023-07-31T06:51:00;7.53;;;2.83;;
41739;SDS011;27422;52.444;13.300;2023-07-31T06:53:26;7.18;;;2.60;;
41739;SDS011;27422;52.444;13.300;2023-07-31T06:55:53;5.72;;;2.17;;
41739;SDS011;27422;52.444;13.300;2023-07-31T06:58:18;7.18;;;2.42;;
41739;SDS011;27422;52.444;13.300;2023-07-31T07:00:43;8.38;;;2.50;;
41739;SDS011;27422;52.444;13.300;2023-07-31T07:03:09;7.32;;;2.70;;
41739;SDS011;27422;52.444;13.300;2023-07-31T07:05:39;5.90;;;2.58;;
41739;SDS011;27422;52.444;13.300;2023-07-31T07:08:05;7.68;;;2.60;;
41739;SDS011;27422;52.444;13.300;2023-07-31T07:10:30;9.05;;;3.05;;
41739;SDS011;27422;52.444;13.300;2023-07-31T07:12:55;7.55;;;2.75;;
41739;SDS011;27422;52.444;13.300;2023-07-31T07:15:21;6.50;;;3.08;;
41739;SDS011;27422;52.444;13.300;2023-07-31T07:17:46;6.30;;;2.60;;
41739;SDS011;27422;52.444;13.300;2023-07-31T07:20:12;7.78;;;2.90;;
41739;SDS011;27422;52.444;13.300;2023-07-31T07:22:37;5.60;;;2.80;;
41739;SDS011;27422;52.444;13.300;2023-07-31T07:25:09;5.43;;;2.78;;
41739;SDS011;27422;52.444;13.300;2023-07-31T07:27:34;7.75;;;3.08;;
41739;SDS011;27422;52.444;13.300;2023-07-31T07:30:00;6.50;;;2.83;;
41739;SDS011;27422;52.444;13.300;2023-07-31T07:32:25;7.32;;;2.85;;
41739;SDS011;27422;52.444;13.300;2023-07-31T07:34:51;5.57;;;2.83;;
41739;SDS011;27422;52.444;13.300;2023-07-31T07:37:16;7.78;;;3.30;;
41739;SDS011;27422;52.444;13.300;2023-07-31T07:39:41;5.75;;;2.75;;
41739;SDS011;27422;52.444;13.300;2023-07-31T07:42:07;6.70;;;2.55;;
41739;SDS011;27422;52.444;13.300;2023-07-31T07:44:32;7.25;;;2.58;;
41739;SDS011;27422;52.444;13.300;2023-07-31T07:46:58;6.25;;;2.47;;
41739;SDS011;27422;52.444;13.300;2023-07-31T07:49:23;6.88;;;2.95;;
41739;SDS011;27422;52.444;13.300;2023-07-31T07:51:49;5.35;;;2.53;;
41739;SDS011;27422;52.444;13.300;2023-07-31T07:54:14;6.47;;;2.63;;
41739;SDS011;27422;52.444;13.300;2023-07-31T07:56:42;7.00;;;2.53;;
41739;SDS011;27422;52.444;13.300;2023-07-31T07:59:07;6.25;;;3.05;;
41739;SDS011;27422;52.444;13.300;2023-07-31T08:01:33;8.07;;;2.60;;
41739;SDS011;27422;52.444;13.300;2023-07-31T08:03:58;4.10;;;2.30;;
41739;SDS011;27422;52.444;13.300;2023-07-31T08:06:24;6.55;;;2.70;;
41739;SDS011;27422;52.444;13.300;2023-07-31T08:08:49;4.57;;;2.60;;
41739;SDS011;27422;52.444;13.300;2023-07-31T08:11:15;7.10;;;2.67;;
41739;SDS011;27422;52.444;13.300;2023-07-31T08:13:41;5.32;;;2.85;;
41739;SDS011;27422;52.444;13.300;2023-07-31T08:16:06;6.97;;;2.97;;
41739;SDS011;27422;52.444;13.300;2023-07-31T08:18:31;8.00;;;3.03;;
41739;SDS011;27422;52.444;13.300;2023-07-31T08:20:57;6.65;;;2.95;;
41739;SDS011;27422;52.444;13.300;2023-07-31T08:23:23;5.53;;;2.97;;
41739;SDS011;27422;52.444;13.300;2023-07-31T08:25:48;5.88;;;2.55;;
41739;SDS011;27422;52.444;13.300;2023-07-31T08:28:16;5.55;;;2.88;;
41739;SDS011;27422;52.444;13.300;2023-07-31T08:30:41;4.80;;;2.75;;
41739;SDS011;27422;52.444;13.300;2023-07-31T08:33:07;5.90;;;3.03;;
41739;SDS011;27422;52.444;13.300;2023-07-31T08:35:36;8.48;;;3.38;;
41739;SDS011;27422;52.444;13.300;2023-07-31T08:38:02;4.88;;;2.72;;
41739;SDS011;27422;52.444;13.300;2023-07-31T08:40:28;8.25;;;3.10;;
41739;SDS011;27422;52.444;13.300;2023-07-31T08:42:54;6.45;;;3.05;;
41739;SDS011;27422;52.444;13.300;2023-07-31T08:45:21;5.68;;;2.50;;
41739;SDS011;27422;52.444;13.300;2023-07-31T08:47:51;5.68;;;2.70;;
41739;SDS011;27422;52.444;13.300;2023-07-31T08:50:19;6.07;;;2.60;;
41739;SDS011;27422;52.444;13.300;2023-07-31T08:52:45;6.65;;;2.63;;
41739;SDS011;27422;52.444;13.300;2023-07-31T08:55:11;5.95;;;2.00;;
41739;SDS011;27422;52.444;13.300;2023-07-31T08:57:37;3.22;;;1.83;;
41739;SDS011;27422;52.444;13.300;2023-07-31T09:00:06;4.10;;;1.92;;
41739;SDS011;27422;52.444;13.300;2023-07-31T09:02:46;3.47;;;1.50;;
41739;SDS011;27422;52.444;13.300;2023-07-31T09:05:14;4.05;;;1.92;;
41739;SDS011;27422;52.444;13.300;2023-07-31T09:07:40;2.97;;;1.50;;
41739;SDS011;27422;52.444;13.300;2023-07-31T09:10:11;3.13;;;1.45;;
41739;SDS011;27422;52.444;13.300;2023-07-31T09:12:36;5.63;;;1.67;;
41739;SDS011;27422;52.444;13.300;2023-07-31T09:15:03;3.58;;;1.27;;
41739;SDS011;27422;52.444;13.300;2023-07-31T09:17:29;2.50;;;1.10;;
41739;SDS011;27422;52.444;13.300;2023-07-31T09:19:56;2.35;;;0.95;;
41739;SDS011;27422;52.444;13.300;2023-07-31T09:22:34;3.22;;;1.02;;
41739;SDS011;27422;52.444;13.300;2023-07-31T09:25:19;4.10;;;1.58;;
41739;SDS011;27422;52.444;13.300;2023-07-31T09:30:25;4.25;;;1.02;;
41739;SDS011;27422;52.444;13.300;2023-07-31T09:33:01;4.32;;;0.90;;
41739;SDS011;27422;52.444;13.300;2023-07-31T09:35:28;3.85;;;1.27;;
41739;SDS011;27422;52.444;13.300;2023-07-31T09:37:57;1.80;;;0.90;;
41739;SDS011;27422;52.444;13.300;2023-07-31T09:40:27;2.35;;;1.00;;
41739;SDS011;27422;52.444;13.300;2023-07-31T09:42:55;1.95;;;0.90;;
41739;SDS011;27422;52.444;13.300;2023-07-31T09:45:35;2.58;;;0.88;;
41739;SDS011;27422;52.444;13.300;2023-07-31T09:48:02;2.53;;;1.10;;
41739;SDS011;27422;52.444;13.300;2023-07-31T09:50:27;3.97;;;1.20;;
41739;SDS011;27422;52.444;13.300;2023-07-31T09:52:53;2.90;;;1.45;;
41739;SDS011;27422;52.444;13.300;2023-07-31T09:55:19;2.90;;;1.40;;
41739;SDS011;27422;52.444;13.300;2023-07-31T09:57:48;2.72;;;1.38;;
41739;SDS011;27422;52.444;13.300;2023-07-31T10:00:15;3.78;;;2.10;;
41739;SDS011;27422;52.444;13.300;2023-07-31T10:02:41;4.43;;;2.10;;
41739;SDS011;27422;52.444;13.300;2023-07-31T10:05:15;4.60;;;2.40;;
41739;SDS011;27422;52.444;13.300;2023-07-31T10:07:55;7.35;;;2.50;;
41739;SDS011;27422;52.444;13.300;2023-07-31T10:10:22;4.57;;;2.25;;
41739;SDS011;27422;52.444;13.300;2023-07-31T10:12:48;6.20;;;2.65;;
41739;SDS011;27422;52.444;13.300;2023-07-31T10:15:17;5.45;;;3.00;;
41739;SDS011;27422;52.444;13.300;2023-07-31T10:17:44;6.90;;;3.08;;
41739;SDS011;27422;52.444;13.300;2023-07-31T10:20:12;5.85;;;2.53;;
41739;SDS011;27422;52.444;13.300;2023-07-31T10:22:37;8.25;;;3.78;;
41739;SDS011;27422;52.444;13.300;2023-07-31T10:25:03;7.70;;;3.10;;
41739;SDS011;27422;52.444;13.300;2023-07-31T10:27:29;5.95;;;2.70;;
41739;SDS011;27422;52.444;13.300;2023-07-31T10:29:55;5.65;;;2.92;;
41739;SDS011;27422;52.444;13.300;2023-07-31T10:32:24;5.57;;;2.63;;
41739;SDS011;27422;52.444;13.300;2023-07-31T10:34:50;6.97;;;3.30;;
41739;SDS011;27422;52.444;13.300;2023-07-31T10:39:55;5.25;;;2.30;;
41739;SDS011;27422;52.444;13.300;2023-07-31T10:42:36;6.07;;;2.10;;
41739;SDS011;27422;52.444;13.300;2023-07-31T10:45:05;5.70;;;2.20;;
41739;SDS011;27422;52.444;13.300;2023-07-31T10:48:06;5.80;;;2.00;;
41739;SDS011;27422;52.444;13.300;2023-07-31T10:50:27;4.50;;;1.65;;
41739;SDS011;27422;52.444;13.300;2023-07-31T10:52:54;6.20;;;2.10;;
41739;SDS011;27422;52.444;13.300;2023-07-31T10:57:49;4.90;;;2.00;;
41739;SDS011;27422;52.444;13.300;2023-07-31T11:00:25;4.43;;;1.80;;
41739;SDS011;27422;52.444;13.300;2023-07-31T11:02:57;4.18;;;1.63;;
41739;SDS011;27422;52.444;13.300;2023-07-31T11:08:20;4.45;;;2.15;;
41739;SDS011;27422;52.444;13.300;2023-07-31T11:13:31;5.30;;;2.17;;
41739;SDS011;27422;52.444;13.300;2023-07-31T11:16:17;4.35;;;2.10;;
41739;SDS011;27422;52.444;13.300;2023-07-31T11:18:44;4.00;;;2.08;;
41739;SDS011;27422;52.444;13.300;2023-07-31T11:21:14;4.40;;;2.17;;
41739;SDS011;27422;52.444;13.300;2023-07-31T11:23:41;4.82;;;2.20;;
41739;SDS011;27422;52.444;13.300;2023-07-31T11:26:09;6.32;;;2.20;;
41739;SDS011;27422;52.444;13.300;2023-07-31T11:28:38;6.50;;;2.22;;
41739;SDS011;27422;52.444;13.300;2023-07-31T11:31:03;4.10;;;1.80;;
41739;SDS011;27422;52.444;13.300;2023-07-31T11:33:29;6.18;;;2.10;;
41739;SDS011;27422;52.444;13.300;2023-07-31T11:35:55;4.97;;;2.20;;
41739;SDS011;27422;52.444;13.300;2023-07-31T11:38:21;6.82;;;2.00;;
41739;SDS011;27422;52.444;13.300;2023-07-31T11:40:48;9.15;;;3.22;;
41739;SDS011;27422;52.444;13.300;2023-07-31T11:43:14;5.55;;;2.28;;
41739;SDS011;27422;52.444;13.300;2023-07-31T11:45:44;5.13;;;2.22;;
41739;SDS011;27422;52.444;13.300;2023-07-31T11:48:19;4.63;;;2.17;;
41739;SDS011;27422;52.444;13.300;2023-07-31T11:50:47;6.40;;;2.03;;
41739;SDS011;27422;52.444;13.300;2023-07-31T11:53:14;4.82;;;2.13;;
41739;SDS011;27422;52.444;13.300;2023-07-31T11:55:40;4.88;;;2.30;;
41739;SDS011;27422;52.444;13.300;2023-07-31T11:58:06;5.90;;;2.28;;
41739;SDS011;27422;52.444;13.300;2023-07-31T12:00:31;7.70;;;2.95;;
41739;SDS011;27422;52.444;13.300;2023-07-31T12:02:57;6.10;;;2.05;;
41739;SDS011;27422;52.444;13.300;2023-07-31T12:05:22;6.05;;;2.03;;
41739;SDS011;27422;52.444;13.300;2023-07-31T12:07:52;4.78;;;2.30;;
41739;SDS011;27422;52.444;13.300;2023-07-31T12:10:31;7.35;;;2.40;;
41739;SDS011;27422;52.444;13.300;2023-07-31T12:13:02;5.38;;;2.38;;
41739;SDS011;27422;52.444;13.300;2023-07-31T12:15:29;6.22;;;2.03;;
41739;SDS011;27422;52.444;13.300;2023-07-31T12:18:14;4.18;;;1.70;;
41739;SDS011;27422;52.444;13.300;2023-07-31T12:20:44;7.00;;;2.15;;
41739;SDS011;27422;52.444;13.300;2023-07-31T12:23:17;3.92;;;1.90;;
41739;SDS011;27422;52.444;13.300;2023-07-31T12:25:44;5.85;;;2.28;;
41739;SDS011;27422;52.444;13.300;2023-07-31T12:28:10;4.80;;;2.03;;
41739;SDS011;27422;52.444;13.300;2023-07-31T12:30:39;4.00;;;1.92;;
41739;SDS011;27422;52.444;13.300;2023-07-31T12:33:06;4.97;;;2.33;;
41739;SDS011;27422;52.444;13.300;2023-07-31T12:35:46;5.70;;;2.20;;
41739;SDS011;27422;52.444;13.300;2023-07-31T12:38:12;5.85;;;1.88;;
41739;SDS011;27422;52.444;13.300;2023-07-31T12:40:38;6.60;;;1.90;;
41739;SDS011;27422;52.444;13.300;2023-07-31T12:43:05;4.65;;;1.60;;
41739;SDS011;27422;52.444;13.300;2023-07-31T12:45:31;4.88;;;1.75;;
41739;SDS011;27422;52.444;13.300;2023-07-31T12:48:00;3.28;;;1.48;;
41739;SDS011;27422;52.444;13.300;2023-07-31T12:50:26;3.00;;;1.25;;
41739;SDS011;27422;52.444;13.300;2023-07-31T12:52:57;3.97;;;1.45;;
41739;SDS011;27422;52.444;13.300;2023-07-31T12:55:22;3.88;;;1.60;;
41739;SDS011;27422;52.444;13.300;2023-07-31T12:57:48;4.40;;;1.30;;
41739;SDS011;27422;52.444;13.300;2023-07-31T13:00:14;3.88;;;1.30;;
41739;SDS011;27422;52.444;13.300;2023-07-31T13:02:39;4.15;;;1.48;;
41739;SDS011;27422;52.444;13.300;2023-07-31T13:05:05;3.78;;;1.70;;
41739;SDS011;27422;52.444;13.300;2023-07-31T13:07:31;5.90;;;1.85;;
41739;SDS011;27422;52.444;13.300;2023-07-31T13:09:56;4.65;;;1.50;;
41739;SDS011;27422;52.444;13.300;2023-07-31T13:12:21;4.13;;;1.38;;
41739;SDS011;27422;52.444;13.300;2023-07-31T13:14:47;3.55;;;1.40;;
41739;SDS011;27422;52.444;13.300;2023-07-31T13:17:12;2.95;;;1.55;;
41739;SDS011;27422;52.444;13.300;2023-07-31T13:19:38;5.28;;;1.88;;
41739;SDS011;27422;52.444;13.300;2023-07-31T13:22:03;3.90;;;1.80;;
41739;SDS011;27422;52.444;13.300;2023-07-31T13:24:29;4.28;;;1.80;;
41739;SDS011;27422;52.444;13.300;2023-07-31T13:26:55;4.25;;;1.98;;
41739;SDS011;27422;52.444;13.300;2023-07-31T13:29:20;5.57;;;1.90;;
41739;SDS011;27422;52.444;13.300;2023-07-31T13:31:46;4.75;;;2.00;;
41739;SDS011;27422;52.444;13.300;2023-07-31T13:34:12;6.13;;;1.92;;
41739;SDS011;27422;52.444;13.300;2023-07-31T13:36:37;5.07;;;2.00;;
41739;SDS011;27422;52.444;13.300;2023-07-31T13:39:03;4.55;;;1.88;;
41739;SDS011;27422;52.444;13.300;2023-07-31T13:41:28;5.05;;;1.70;;
41739;SDS011;27422;52.444;13.300;2023-07-31T13:43:54;4.20;;;1.80;;
41739;SDS011;27422;52.444;13.300;2023-07-31T13:46:19;4.53;;;2.20;;
41739;SDS011;27422;52.444;13.300;2023-07-31T13:48:44;4.93;;;2.08;;
41739;SDS011;27422;52.444;13.300;2023-07-31T13:51:10;4.03;;;1.98;;
41739;SDS011;27422;52.444;13.300;2023-07-31T13:53:35;5.25;;;1.77;;
41739;SDS011;27422;52.444;13.300;2023-07-31T13:56:00;5.43;;;2.00;;
41739;SDS011;27422;52.444;13.300;2023-07-31T13:58:26;5.07;;;2.00;;
41739;SDS011;27422;52.444;13.300;2023-07-31T14:00:51;4.65;;;1.90;;
41739;SDS011;27422;52.444;13.300;2023-07-31T14:03:17;3.97;;;1.90;;
41739;SDS011;27422;52.444;13.300;2023-07-31T14:05:42;5.47;;;2.10;;
41739;SDS011;27422;52.444;13.300;2023-07-31T14:08:07;3.72;;;1.70;;
41739;SDS011;27422;52.444;13.300;2023-07-31T14:10:33;4.47;;;2.03;;
41739;SDS011;27422;52.444;13.300;2023-07-31T14:12:58;4.55;;;2.10;;
41739;SDS011;27422;52.444;13.300;2023-07-31T14:15:24;7.57;;;2.63;;
41739;SDS011;27422;52.444;13.300;2023-07-31T14:17:49;4.38;;;2.10;;
41739;SDS011;27422;52.444;13.300;2023-07-31T14:20:14;4.65;;;2.15;;
41739;SDS011;27422;52.444;13.300;2023-07-31T14:22:43;6.40;;;2.20;;
41739;SDS011;27422;52.444;13.300;2023-07-31T14:25:08;5.93;;;1.90;;
41739;SDS011;27422;52.444;13.300;2023-07-31T14:27:35;6.22;;;2.00;;
41739;SDS011;27422;52.444;13.300;2023-07-31T14:30:01;8.45;;;2.50;;
41739;SDS011;27422;52.444;13.300;2023-07-31T14:32:27;5.22;;;2.08;;
41739;SDS011;27422;52.444;13.300;2023-07-31T14:34:53;5.60;;;2.08;;
41739;SDS011;27422;52.444;13.300;2023-07-31T14:37:19;5.57;;;2.17;;
41739;SDS011;27422;52.444;13.300;2023-07-31T14:39:45;6.32;;;2.13;;
41739;SDS011;27422;52.444;13.300;2023-07-31T14:42:10;4.40;;;1.88;;
41739;SDS011;27422;52.444;13.300;2023-07-31T14:44:36;4.38;;;2.10;;
41739;SDS011;27422;52.444;13.300;2023-07-31T14:47:01;8.20;;;2.00;;
41739;SDS011;27422;52.444;13.300;2023-07-31T14:49:29;4.63;;;2.05;;
41739;SDS011;27422;52.444;13.300;2023-07-31T14:52:03;4.45;;;1.98;;